Valor — WDD8691 — position and weather

sailwx.info

Track history (hours):
 
Tides and Currents Weather Stations Pressure Air Temp Water Temp Dewpoint Dewpoint Depression Visibility Wind Speed Wind Dir Waves Ship Positions

Valor

Owner: Crowley Marine Services, Seattle, WA. More information available from US FCC via Universal Licensing System and Coast Guard Vessel Documentation Center.

Last reported at 2017-Apr-26 03:30 UTC. Time now 2017-Apr-26 03:57 UTC.
Position N 37°48' W 122°24'.

Length 8 m; draft 5.5 m.

Type: Tug. MMSI: 367301480.

Date/timePositionNaut miles runAvg speedWind from/ knotsBaromVisibWave heightAir tempDewpointWater temp
2017-Apr-26 03:30N 37°48' W 122°24'0 0.0
2017-Apr-26 03:00N 37°48' W 122°24'0 0.0
2017-Apr-26 02:30N 37°48' W 122°24'0 0.1
2017-Apr-26 02:00N 37°48' W 122°24'0 0.0
2017-Apr-26 01:26N 37°48' W 122°24'0 0.0
2017-Apr-26 01:00N 37°48' W 122°24'0 0.0
2017-Apr-26 00:30N 37°48' W 122°24'0 0.0
2017-Apr-26 00:00N 37°48' W 122°24'2 3.3
2017-Apr-25 23:31N 37°48' W 122°22'2 3.6
2017-Apr-25 23:00N 37°49' W 122°20'0 0.3
2017-Apr-25 22:30N 37°49' W 122°20'0 0.4
2017-Apr-25 22:00N 37°49' W 122°20'0 0.1
2017-Apr-25 21:30N 37°49' W 122°20'0 0.1
2017-Apr-25 21:00N 37°49' W 122°20'0 0.1
2017-Apr-25 20:30N 37°49' W 122°20'0 0.0
2017-Apr-25 20:00N 37°49' W 122°20'0 0.0
2017-Apr-25 19:30N 37°49' W 122°20'0 0.1
2017-Apr-25 19:00N 37°49' W 122°20'0 0.0
2017-Apr-25 18:30N 37°49' W 122°20'0 0.1
2017-Apr-25 18:00N 37°49' W 122°20'0 0.0
2017-Apr-25 17:30N 37°49' W 122°20'0 0.0
2017-Apr-25 17:00N 37°49' W 122°20'0 0.0
2017-Apr-25 16:30N 37°49' W 122°20'0 0.0
2017-Apr-25 16:00N 37°49' W 122°20'0 0.0
2017-Apr-25 15:30N 37°49' W 122°20'0 0.0
2017-Apr-25 15:00N 37°49' W 122°20'0 0.3
2017-Apr-25 14:00N 37°49' W 122°20'0 0.3
2017-Apr-25 13:30N 37°49' W 122°20'3 5.7
2017-Apr-25 13:00N 37°49' W 122°23'1 1.8
2017-Apr-25 12:30N 37°48' W 122°24'0 0.0
2017-Apr-25 12:00N 37°48' W 122°24'0 0.0
2017-Apr-25 11:30N 37°48' W 122°24'0 0.3
2017-Apr-25 11:00N 37°48' W 122°24'4 7.3
2017-Apr-25 10:30N 37°49' W 122°28'2 4.6
2017-Apr-25 10:00N 37°49' W 122°31'2 3.5
2017-Apr-25 09:31N 37°49' W 122°29'4 8.8
2017-Apr-25 09:00N 37°52' W 122°25'510.5
2017-Apr-25 08:30N 37°58' W 122°27'510.2
2017-Apr-25 08:00N 38°02' W 122°23'5 9.0
2017-Apr-25 07:30N 38°03' W 122°17'1 2.6
2017-Apr-25 07:00N 38°03' W 122°16'1 1.2
2017-Apr-25 06:31N 38°04' W 122°15'0 0.5
2017-Apr-25 06:00N 38°03' W 122°15'0 0.0
2017-Apr-25 05:26N 38°03' W 122°15'0 0.1
2017-Apr-25 05:00N 38°03' W 122°15'0 0.1
2017-Apr-25 04:30N 38°03' W 122°15'0 0.0
2017-Apr-25 04:00N 38°03' W 122°15'0 0.0
2017-Apr-25 03:30N 38°03' W 122°15'3 2.0
2017-Apr-25 01:54N 38°03' W 122°11'3 7.3
2017-Apr-25 01:28N 38°03' W 122°15'0 0.0
2017-Apr-25 01:00N 38°03' W 122°15'0 0.0
2017-Apr-25 00:30N 38°03' W 122°15'0 0.1
2017-Apr-24 23:59N 38°03' W 122°15'0 0.0
2017-Apr-24 23:30N 38°03' W 122°15'0 0.0
2017-Apr-24 23:00N 38°03' W 122°15'0 0.0
2017-Apr-24 22:28N 38°03' W 122°15'0 0.0
2017-Apr-24 21:52N 38°03' W 122°15'0 0.0
2017-Apr-24 21:30N 38°03' W 122°15'0 0.0
2017-Apr-24 20:19N 38°03' W 122°15'2 5.4
2017-Apr-24 19:56N 38°03' W 122°12'4 9.9
2017-Apr-24 19:30N 38°03' W 122°17'5 9.8
2017-Apr-24 18:59N 38°01' W 122°23'5 9.5
2017-Apr-24 18:30N 37°57' W 122°26'5 9.8
2017-Apr-24 18:00N 37°52' W 122°24'4 8.3
2017-Apr-24 17:30N 37°48' W 122°22'1 2.2
2017-Apr-24 17:00N 37°49' W 122°23'4 7.6
2017-Apr-24 16:31N 37°53' W 122°25'3 4.7
2017-Apr-24 15:58N 37°55' W 122°25'0 0.8
2017-Apr-24 15:30N 37°55' W 122°25'0 0.2
2017-Apr-24 15:00N 37°55' W 122°25'2 3.3
2017-Apr-24 14:30N 37°54' W 122°25'1 1.2
2017-Apr-24 13:30N 37°54' W 122°24'2 3.6
2017-Apr-24 13:00N 37°55' W 122°22'0 0.0
2017-Apr-24 12:30N 37°55' W 122°22'3 5.2
2017-Apr-24 12:00N 37°55' W 122°25'4 7.1
2017-Apr-24 11:30N 37°52' W 122°27'3 6.8
2017-Apr-24 11:01N 37°49' W 122°29'1 2.9
2017-Apr-24 10:30N 37°49' W 122°31'4 9.0
2017-Apr-24 10:00N 37°50' W 122°26'510.4
2017-Apr-24 09:30N 37°46' W 122°21'0 0.3
2017-Apr-24 09:00N 37°46' W 122°21'2 4.0
2017-Apr-24 08:30N 37°48' W 122°21'1 1.8
2017-Apr-24 08:01N 37°49' W 122°20'0 0.0
2017-Apr-24 07:30N 37°49' W 122°20'0 0.0
2017-Apr-24 07:00N 37°49' W 122°20'0 0.0
2017-Apr-24 06:30N 37°49' W 122°20'0 0.1
2017-Apr-24 06:00N 37°49' W 122°20'0 0.1
2017-Apr-24 05:30N 37°49' W 122°20'0 0.0
2017-Apr-24 05:00N 37°49' W 122°20'0 0.0
2017-Apr-24 04:30N 37°49' W 122°20'3 5.1
2017-Apr-24 04:00N 37°46' W 122°21'2 3.5
2017-Apr-24 03:31N 37°48' W 122°22'611.6
2017-Apr-24 03:00N 37°53' W 122°25'5 9.8
2017-Apr-24 02:30N 37°58' W 122°27'510.9
2017-Apr-24 02:00N 38°02' W 122°22'610.8
2017-Apr-24 01:27N 38°04' W 122°15'6 9.4
2017-Apr-24 00:50N 38°02' W 122°08'3 0.7
2017-Apr-23 20:49N 38°03' W 122°11'3 8.3
2017-Apr-23 20:26N 38°04' W 122°15'4 8.7
2017-Apr-23 20:00N 38°03' W 122°20'5 9.0
2017-Apr-23 19:30N 38°00' W 122°24'4 8.5
2017-Apr-23 19:01N 37°56' W 122°26'5 9.3
2017-Apr-23 18:30N 37°52' W 122°24'4 8.1
2017-Apr-23 18:00N 37°48' W 122°21'1 1.4
2017-Apr-23 17:30N 37°49' W 122°20'0 0.0
2017-Apr-23 17:00N 37°49' W 122°20'0 0.1
2017-Apr-23 16:30N 37°49' W 122°20'0 0.0
2017-Apr-23 16:00N 37°49' W 122°20'0 0.1
2017-Apr-23 15:30N 37°49' W 122°20'0 0.0
2017-Apr-23 15:00N 37°49' W 122°20'0 0.0
2017-Apr-23 14:00N 37°49' W 122°20'0 0.1
2017-Apr-23 13:30N 37°49' W 122°20'0 0.8
2017-Apr-23 13:00N 37°48' W 122°20'0 0.9
2017-Apr-23 12:30N 37°49' W 122°20'1 1.0
2017-Apr-23 12:00N 37°48' W 122°21'0 0.2
2017-Apr-23 11:30N 37°48' W 122°21'0 0.3
2017-Apr-23 11:00N 37°48' W 122°20'0 0.0
2017-Apr-23 10:30N 37°48' W 122°20'1 1.4
2017-Apr-23 10:00N 37°49' W 122°21'510.7
2017-Apr-23 09:30N 37°53' W 122°25'1 2.9
2017-Apr-23 09:00N 37°54' W 122°24'1 2.7
2017-Apr-23 08:30N 37°55' W 122°22'0 0.0
2017-Apr-23 08:00N 37°55' W 122°22'0 0.3
2017-Apr-23 07:30N 37°55' W 122°22'0 0.1
2017-Apr-23 07:00N 37°55' W 122°22'0 0.0
2017-Apr-23 06:30N 37°55' W 122°22'0 0.0
2017-Apr-23 06:00N 37°55' W 122°22'0 0.0
2017-Apr-23 05:30N 37°55' W 122°22'2 4.8
2017-Apr-23 05:00N 37°55' W 122°25'4 7.1
2017-Apr-23 04:30N 37°58' W 122°26'3 6.9
2017-Apr-23 04:00N 38°01' W 122°23'4 7.7
2017-Apr-23 03:29N 38°03' W 122°19'4 8.9
2017-Apr-23 03:00N 38°04' W 122°13'2 1.0
2017-Apr-23 00:51N 38°03' W 122°11'2 7.4
2017-Apr-23 00:30N 38°04' W 122°14'5 9.1
2017-Apr-23 00:00N 38°03' W 122°19'5 9.1
2017-Apr-22 23:29N 38°01' W 122°24'4 8.8
2017-Apr-22 23:00N 37°57' W 122°27'4 8.4
2017-Apr-22 22:30N 37°53' W 122°25'5 9.7
2017-Apr-22 22:00N 37°48' W 122°23'1 2.1
2017-Apr-22 21:30N 37°48' W 122°22'1 2.9
2017-Apr-22 20:59N 37°49' W 122°20'0 0.0
2017-Apr-22 20:30N 37°49' W 122°20'0 0.0
2017-Apr-22 20:00N 37°49' W 122°20'0 0.0
2017-Apr-22 19:30N 37°49' W 122°20'0 0.1
2017-Apr-22 19:00N 37°49' W 122°20'0 0.1
2017-Apr-22 18:30N 37°49' W 122°20'0 0.1
2017-Apr-22 18:00N 37°49' W 122°20'0 0.1
2017-Apr-22 17:30N 37°49' W 122°20'0 0.0
2017-Apr-22 17:00N 37°49' W 122°20'0 0.1
2017-Apr-22 16:30N 37°49' W 122°20'0 0.0
2017-Apr-22 16:00N 37°49' W 122°20'0 0.1
2017-Apr-22 15:30N 37°49' W 122°20'0 0.0
2017-Apr-22 15:00N 37°49' W 122°20'0 0.1
2017-Apr-22 14:30N 37°49' W 122°20'0 0.3
2017-Apr-22 13:30N 37°48' W 122°20'0 0.4
2017-Apr-22 13:01N 37°49' W 122°20'1 1.1
2017-Apr-22 12:30N 37°49' W 122°20'2 4.5
2017-Apr-22 12:01N 37°48' W 122°22'2 3.7
2017-Apr-22 11:30N 37°49' W 122°20'0 0.0
2017-Apr-22 11:00N 37°49' W 122°20'0 0.0
2017-Apr-22 10:30N 37°49' W 122°20'0 0.0
2017-Apr-22 10:00N 37°49' W 122°20'0 0.0
2017-Apr-22 09:30N 37°49' W 122°20'0 0.1
2017-Apr-22 09:00N 37°49' W 122°20'0 0.1
2017-Apr-22 08:30N 37°49' W 122°20'0 0.0
2017-Apr-22 08:00N 37°49' W 122°20'0 0.0
2017-Apr-22 07:30N 37°49' W 122°20'0 0.0
2017-Apr-22 07:00N 37°49' W 122°20'0 0.0
2017-Apr-22 06:30N 37°49' W 122°20'0 0.1
2017-Apr-22 06:00N 37°49' W 122°20'0 0.1
2017-Apr-22 05:30N 37°49' W 122°20'0 0.0
2017-Apr-22 05:00N 37°49' W 122°20'0 0.0
2017-Apr-22 04:30N 37°49' W 122°20'0 0.0
2017-Apr-22 04:00N 37°49' W 122°20'0 0.1
2017-Apr-22 03:30N 37°49' W 122°20'0 0.1
2017-Apr-22 03:00N 37°49' W 122°20'0 0.1
2017-Apr-22 02:30N 37°49' W 122°20'0 0.0
2017-Apr-22 02:00N 37°49' W 122°20'0 0.1
2017-Apr-22 01:30N 37°49' W 122°20'0 0.1
2017-Apr-22 01:00N 37°49' W 122°20'0 0.4
2017-Apr-22 00:30N 37°49' W 122°20'0 0.5
2017-Apr-22 00:00N 37°49' W 122°20'0 0.1
2017-Apr-21 23:30N 37°49' W 122°20'0 0.5
2017-Apr-21 23:00N 37°49' W 122°20'3 5.7
2017-Apr-21 22:30N 37°48' W 122°24'0 0.6
2017-Apr-21 22:00N 37°48' W 122°24'0 0.0
2017-Apr-21 21:30N 37°48' W 122°24'0 0.0
2017-Apr-21 21:00N 37°48' W 122°24'0 0.0
2017-Apr-21 20:30N 37°48' W 122°24'0 0.0
2017-Apr-21 20:00N 37°48' W 122°24'0 0.0
2017-Apr-21 19:30N 37°48' W 122°24'0 0.0
2017-Apr-21 19:00N 37°48' W 122°24'0 0.0
2017-Apr-21 18:30N 37°48' W 122°24'0 0.0
2017-Apr-21 18:00N 37°48' W 122°24'0 0.0
2017-Apr-21 17:30N 37°48' W 122°24'0 0.0
2017-Apr-21 17:00N 37°48' W 122°24'0 0.0
2017-Apr-21 16:30N 37°48' W 122°24'0 0.0
2017-Apr-21 16:00N 37°48' W 122°24'0 0.0
2017-Apr-21 15:30N 37°48' W 122°24'2 4.0
2017-Apr-21 15:00N 37°47' W 122°22'5 9.2
2017-Apr-21 14:30N 37°49' W 122°27'3 2.8
2017-Apr-21 13:30N 37°48' W 122°30'2 5.0
2017-Apr-21 13:00N 37°50' W 122°28'3 5.9
2017-Apr-21 12:30N 37°52' W 122°26'3 5.5
2017-Apr-21 12:01N 37°55' W 122°24'2 3.6
2017-Apr-21 11:30N 37°55' W 122°22'0 0.3
2017-Apr-21 11:00N 37°55' W 122°22'1 2.0
2017-Apr-21 10:30N 37°54' W 122°23'2 3.6
2017-Apr-21 10:00N 37°55' W 122°25'4 7.6
2017-Apr-21 09:30N 37°51' W 122°25'5 9.0
2017-Apr-21 09:00N 37°49' W 122°30'1 2.2
2017-Apr-21 08:30N 37°49' W 122°31'0 0.1
2017-Apr-21 08:00N 37°49' W 122°31'2 4.4
2017-Apr-21 07:30N 37°49' W 122°28'2 3.2
2017-Apr-21 07:00N 37°50' W 122°27'3 5.2
2017-Apr-21 06:30N 37°52' W 122°25'4 8.4
2017-Apr-21 06:00N 37°57' W 122°26'4 8.1
2017-Apr-21 05:30N 38°00' W 122°24'4 7.5
2017-Apr-21 05:00N 38°03' W 122°20'4 7.5
2017-Apr-21 04:29N 38°04' W 122°15'3 7.2
2017-Apr-21 04:00N 38°03' W 122°11'3 5.1
2017-Apr-21 03:28N 38°02' W 122°08'0 0.0
2017-Apr-21 02:54N 38°02' W 122°08'2 1.5
2017-Apr-21 01:47N 38°03' W 122°06'4 4.5
2017-Apr-21 00:57N 38°03' W 122°11'3 6.7
2017-Apr-21 00:27N 38°04' W 122°15'1 1.3
2017-Apr-21 00:00N 38°03' W 122°16'2 2.5
2017-Apr-20 23:20N 38°03' W 122°18'2 6.2
2017-Apr-20 23:00N 38°03' W 122°20'3 5.5
2017-Apr-20 22:30N 38°01' W 122°23'4 7.3
2017-Apr-20 22:00N 37°58' W 122°26'4 7.2
2017-Apr-20 21:30N 37°54' W 122°25'3 6.7
2017-Apr-20 21:00N 37°51' W 122°24'3 5.7
2017-Apr-20 20:30N 37°48' W 122°24'0 0.6
2017-Apr-20 20:00N 37°48' W 122°24'0 0.0
2017-Apr-20 19:30N 37°48' W 122°24'0 0.0
2017-Apr-20 19:00N 37°48' W 122°24'0 0.0
2017-Apr-20 18:30N 37°48' W 122°24'0 0.1
2017-Apr-20 18:01N 37°48' W 122°24'3 6.8
2017-Apr-20 17:31N 37°49' W 122°20'0 0.3
2017-Apr-20 17:00N 37°49' W 122°20'0 0.6
2017-Apr-20 16:30N 37°49' W 122°20'0 0.0
2017-Apr-20 16:00N 37°49' W 122°20'0 0.0
2017-Apr-20 15:30N 37°49' W 122°20'0 0.0
2017-Apr-20 15:00N 37°49' W 122°20'2 1.7
2017-Apr-20 14:00N 37°48' W 122°22'4 8.3
2017-Apr-20 13:30N 37°49' W 122°27'2 5.0
2017-Apr-20 13:00N 37°48' W 122°30'3 6.4
2017-Apr-20 12:30N 37°50' W 122°27'4 8.3
2017-Apr-20 12:00N 37°54' W 122°25'1 2.2
2017-Apr-20 11:30N 37°55' W 122°25'0 0.1
2017-Apr-20 11:00N 37°55' W 122°25'0 0.1
2017-Apr-20 09:29N 37°55' W 122°24'3 6.2
2017-Apr-20 09:00N 37°53' W 122°26'3 5.9
2017-Apr-20 08:30N 37°50' W 122°28'3 5.4
2017-Apr-20 08:00N 37°49' W 122°31'2 4.4
2017-Apr-20 07:31N 37°49' W 122°28'4 8.6
2017-Apr-20 07:00N 37°53' W 122°25'2 5.0
2017-Apr-20 06:31N 37°55' W 122°25'0 0.3
2017-Apr-20 06:00N 37°55' W 122°25'0 0.4
2017-Apr-20 05:29N 37°55' W 122°25'0 0.0
2017-Apr-20 05:01N 37°55' W 122°25'0 0.0
2017-Apr-20 04:30N 37°55' W 122°25'0 0.0
2017-Apr-20 04:00N 37°55' W 122°25'0 0.0
2017-Apr-20 03:29N 37°55' W 122°25'0 0.0
2017-Apr-20 02:59N 37°55' W 122°25'0 0.0
2017-Apr-20 02:31N 37°55' W 122°25'0 0.0
2017-Apr-20 02:01N 37°55' W 122°25'0 0.0
2017-Apr-20 01:30N 37°55' W 122°25'0 0.0
2017-Apr-20 00:59N 37°55' W 122°25'0 0.0
2017-Apr-20 00:31N 37°55' W 122°25'0 0.0
2017-Apr-20 00:00N 37°55' W 122°25'0 0.0
2017-Apr-19 23:30N 37°55' W 122°25'3 6.5
2017-Apr-19 23:00N 37°52' W 122°24'4 7.5
2017-Apr-19 22:31N 37°49' W 122°21'1 2.7
2017-Apr-19 22:00N 37°49' W 122°20'0 0.1
2017-Apr-19 21:30N 37°49' W 122°20'3 6.5
2017-Apr-19 21:01N 37°48' W 122°24'0 0.0
2017-Apr-19 20:31N 37°48' W 122°24'0 0.0
2017-Apr-19 20:01N 37°48' W 122°24'0 0.0
2017-Apr-19 19:31N 37°48' W 122°24'0 0.0
2017-Apr-19 19:01N 37°48' W 122°24'4 8.4
2017-Apr-19 18:31N 37°52' W 122°25'710.9
2017-Apr-19 17:54N 37°59' W 122°25'410.7
2017-Apr-19 17:30N 38°02' W 122°22'510.8
2017-Apr-19 17:00N 38°04' W 122°15'4 1.1
2017-Apr-19 13:53N 38°03' W 122°11'3 7.4
2017-Apr-19 13:30N 38°04' W 122°14'810.3
2017-Apr-19 12:42N 38°01' W 122°24'211.7
2017-Apr-19 12:30N 37°59' W 122°26'5 9.1
2017-Apr-19 12:00N 37°55' W 122°24'2 4.1
2017-Apr-19 11:31N 37°55' W 122°22'0 0.1
2017-Apr-19 11:01N 37°55' W 122°22'0 0.3
2017-Apr-19 10:30N 37°55' W 122°22'0 0.0
2017-Apr-19 10:01N 37°55' W 122°22'0 0.0
2017-Apr-19 09:31N 37°55' W 122°22'0 0.0
2017-Apr-19 09:00N 37°55' W 122°22'0 0.1
2017-Apr-19 08:31N 37°55' W 122°22'4 7.1
2017-Apr-19 08:01N 37°56' W 122°26'5 9.4
2017-Apr-19 07:30N 38°01' W 122°24'5 9.6
2017-Apr-19 07:01N 38°03' W 122°18'6 9.7
2017-Apr-19 06:24N 38°03' W 122°11'3 5.4
2017-Apr-19 05:54N 38°02' W 122°08'0 0.0
2017-Apr-19 05:19N 38°02' W 122°08'2 2.5
2017-Apr-19 04:24N 38°03' W 122°11'3 7.3
2017-Apr-19 04:00N 38°04' W 122°14'510.5
2017-Apr-19 03:29N 38°03' W 122°21'510.6
2017-Apr-19 03:00N 37°59' W 122°26'510.9
2017-Apr-19 02:31N 37°54' W 122°26'5 9.2
2017-Apr-19 02:01N 37°49' W 122°26'4 7.3
2017-Apr-19 01:31N 37°48' W 122°31'1 2.0
2017-Apr-19 01:00N 37°48' W 122°29'511.0
2017-Apr-19 00:31N 37°53' W 122°26'2 4.5
2017-Apr-19 00:00N 37°55' W 122°25'0 0.0
2017-Apr-18 23:29N 37°55' W 122°25'0 1.0
2017-Apr-18 23:01N 37°55' W 122°25'3 5.4
2017-Apr-18 22:31N 37°53' W 122°25'1 2.0
2017-Apr-18 22:01N 37°52' W 122°24'3 6.9
2017-Apr-18 21:30N 37°49' W 122°21'1 2.3
2017-Apr-18 21:00N 37°49' W 122°20'0 0.1
2017-Apr-18 20:30N 37°49' W 122°20'0 0.1
2017-Apr-18 20:00N 37°49' W 122°20'0 0.0
2017-Apr-18 19:30N 37°49' W 122°20'0 0.1
2017-Apr-18 19:01N 37°49' W 122°20'0 0.1
2017-Apr-18 18:31N 37°49' W 122°20'0 0.1
2017-Apr-18 18:00N 37°49' W 122°20'0 0.1
2017-Apr-18 17:30N 37°49' W 122°20'0 0.0
2017-Apr-18 17:01N 37°49' W 122°20'0 0.0
2017-Apr-18 16:30N 37°49' W 122°20'0 0.1
2017-Apr-18 16:01N 37°49' W 122°20'1 1.3
2017-Apr-18 15:31N 37°48' W 122°20'1 2.0
2017-Apr-18 15:01N 37°48' W 122°19'0 0.5
2017-Apr-18 14:00N 37°48' W 122°18'2 3.5
2017-Apr-18 13:31N 37°48' W 122°20'2 3.2
2017-Apr-18 13:01N 37°48' W 122°22'2 3.6
2017-Apr-18 12:31N 37°49' W 122°20'0 0.0
2017-Apr-18 12:01N 37°49' W 122°20'0 0.0
2017-Apr-18 11:31N 37°49' W 122°20'0 0.0
2017-Apr-18 11:00N 37°49' W 122°20'2 4.6
2017-Apr-18 10:31N 37°49' W 122°23'5 9.5
2017-Apr-18 10:01N 37°53' W 122°25'2 4.3
2017-Apr-18 09:30N 37°55' W 122°25'0 0.1
2017-Apr-18 09:01N 37°55' W 122°25'1 2.6
2017-Apr-18 08:30N 37°54' W 122°25'1 1.7
2017-Apr-18 08:00N 37°55' W 122°25'3 5.6
2017-Apr-18 07:30N 37°55' W 122°22'0 0.0
2017-Apr-18 07:01N 37°55' W 122°22'0 0.1
2017-Apr-18 06:30N 37°55' W 122°22'0 0.0
2017-Apr-18 06:00N 37°55' W 122°22'0 0.0
2017-Apr-18 05:30N 37°55' W 122°22'0 0.3
2017-Apr-18 05:01N 37°55' W 122°22'0 0.0
2017-Apr-18 04:30N 37°55' W 122°22'1 1.1
2017-Apr-18 04:00N 37°54' W 122°22'3 5.1
2017-Apr-18 03:31N 37°55' W 122°25'3 6.1
2017-Apr-18 03:00N 37°52' W 122°25'4 7.1
2017-Apr-18 02:31N 37°49' W 122°27'3 5.5
2017-Apr-18 02:01N 37°48' W 122°30'4 7.0
2017-Apr-18 01:30N 37°49' W 122°26'713.1
2017-Apr-18 01:00N 37°48' W 122°18'0 0.0
2017-Apr-18 00:28N 37°48' W 122°18'1 1.2
2017-Apr-18 00:00N 37°48' W 122°19'0 0.0
2017-Apr-17 23:31N 37°48' W 122°19'0 0.4
2017-Apr-17 23:01N 37°48' W 122°19'4 7.7
2017-Apr-17 22:30N 37°48' W 122°24'0 0.0
2017-Apr-17 22:01N 37°48' W 122°24'0 0.0
2017-Apr-17 21:30N 37°48' W 122°24'0 0.0
2017-Apr-17 21:00N 37°48' W 122°24'0 0.0
2017-Apr-17 20:30N 37°48' W 122°24'0 0.1
2017-Apr-17 20:00N 37°48' W 122°24'3 6.0
2017-Apr-17 19:30N 37°49' W 122°20'0 0.1
2017-Apr-17 19:00N 37°49' W 122°20'0 0.1
2017-Apr-17 18:30N 37°49' W 122°20'0 0.1
2017-Apr-17 18:00N 37°49' W 122°20'0 0.0
2017-Apr-17 17:30N 37°49' W 122°20'0 0.1
2017-Apr-17 17:00N 37°49' W 122°20'0 0.1
2017-Apr-17 16:30N 37°49' W 122°20'0 0.0
2017-Apr-17 16:00N 37°49' W 122°20'0 0.1
2017-Apr-17 15:30N 37°49' W 122°20'1 2.5
2017-Apr-17 15:00N 37°48' W 122°22'7 7.3
2017-Apr-17 14:01N 37°49' W 122°31'1 1.8
2017-Apr-17 13:31N 37°48' W 122°31'510.9
2017-Apr-17 13:01N 37°51' W 122°25'510.7
2017-Apr-17 12:30N 37°56' W 122°27'611.0
2017-Apr-17 12:00N 38°01' W 122°24'510.1
2017-Apr-17 11:30N 38°03' W 122°18'7 0.9
2017-Apr-17 03:29N 38°02' W 122°09'1 0.9
2017-Apr-17 02:32N 38°02' W 122°08'0 3.5
2017-Apr-17 02:29N 38°02' W 122°08'0 0.2
2017-Apr-16 23:24N 38°02' W 122°09'0 0.0
2017-Apr-16 12:25N 38°02' W 122°09'1 1.1
2017-Apr-16 11:34N 38°02' W 122°08'0 4.0
2017-Apr-16 11:28N 38°02' W 122°08'  
Track history (hours):
 
Tides and Currents Weather Stations Pressure Air Temp Water Temp Dewpoint Dewpoint Depression Visibility Wind Speed Wind Dir Waves Ship Positions

Valor

Owner: Crowley Marine Services, Seattle, WA. More information available from US FCC via Universal Licensing System and Coast Guard Vessel Documentation Center.

Last reported at 2017-Apr-26 03:30 UTC. Time now 2017-Apr-26 03:57 UTC.
Position N 37°48' W 122°24'.

Length 8 m; draft 5.5 m.

Type: Tug. MMSI: 367301480.

Date/timePositionNaut miles runAvg speedWind from/ knotsBaromVisibWave heightAir tempDewpointWater temp
2017-Apr-26 03:30N 37°48' W 122°24'0 0.0
2017-Apr-26 03:00N 37°48' W 122°24'0 0.0
2017-Apr-26 02:30N 37°48' W 122°24'0 0.1
2017-Apr-26 02:00N 37°48' W 122°24'0 0.0
2017-Apr-26 01:26N 37°48' W 122°24'0 0.0
2017-Apr-26 01:00N 37°48' W 122°24'0 0.0
2017-Apr-26 00:30N 37°48' W 122°24'0 0.0
2017-Apr-26 00:00N 37°48' W 122°24'2 3.3
2017-Apr-25 23:31N 37°48' W 122°22'2 3.6
2017-Apr-25 23:00N 37°49' W 122°20'0 0.3
2017-Apr-25 22:30N 37°49' W 122°20'0 0.4
2017-Apr-25 22:00N 37°49' W 122°20'0 0.1
2017-Apr-25 21:30N 37°49' W 122°20'0 0.1
2017-Apr-25 21:00N 37°49' W 122°20'0 0.1
2017-Apr-25 20:30N 37°49' W 122°20'0 0.0
2017-Apr-25 20:00N 37°49' W 122°20'0 0.0
2017-Apr-25 19:30N 37°49' W 122°20'0 0.1
2017-Apr-25 19:00N 37°49' W 122°20'0 0.0
2017-Apr-25 18:30N 37°49' W 122°20'0 0.1
2017-Apr-25 18:00N 37°49' W 122°20'0 0.0
2017-Apr-25 17:30N 37°49' W 122°20'0 0.0
2017-Apr-25 17:00N 37°49' W 122°20'0 0.0
2017-Apr-25 16:30N 37°49' W 122°20'0 0.0
2017-Apr-25 16:00N 37°49' W 122°20'0 0.0
2017-Apr-25 15:30N 37°49' W 122°20'0 0.0
2017-Apr-25 15:00N 37°49' W 122°20'0 0.3
2017-Apr-25 14:00N 37°49' W 122°20'0 0.3
2017-Apr-25 13:30N 37°49' W 122°20'3 5.7
2017-Apr-25 13:00N 37°49' W 122°23'1 1.8
2017-Apr-25 12:30N 37°48' W 122°24'0 0.0
2017-Apr-25 12:00N 37°48' W 122°24'0 0.0
2017-Apr-25 11:30N 37°48' W 122°24'0 0.3
2017-Apr-25 11:00N 37°48' W 122°24'4 7.3
2017-Apr-25 10:30N 37°49' W 122°28'2 4.6
2017-Apr-25 10:00N 37°49' W 122°31'2 3.5
2017-Apr-25 09:31N 37°49' W 122°29'4 8.8
2017-Apr-25 09:00N 37°52' W 122°25'510.5
2017-Apr-25 08:30N 37°58' W 122°27'510.2
2017-Apr-25 08:00N 38°02' W 122°23'5 9.0
2017-Apr-25 07:30N 38°03' W 122°17'1 2.6
2017-Apr-25 07:00N 38°03' W 122°16'1 1.2
2017-Apr-25 06:31N 38°04' W 122°15'0 0.5
2017-Apr-25 06:00N 38°03' W 122°15'0 0.0
2017-Apr-25 05:26N 38°03' W 122°15'0 0.1
2017-Apr-25 05:00N 38°03' W 122°15'0 0.1
2017-Apr-25 04:30N 38°03' W 122°15'0 0.0
2017-Apr-25 04:00N 38°03' W 122°15'0 0.0
2017-Apr-25 03:30N 38°03' W 122°15'3 2.0
2017-Apr-25 01:54N 38°03' W 122°11'3 7.3
2017-Apr-25 01:28N 38°03' W 122°15'0 0.0
2017-Apr-25 01:00N 38°03' W 122°15'0 0.0
2017-Apr-25 00:30N 38°03' W 122°15'0 0.1
2017-Apr-24 23:59N 38°03' W 122°15'0 0.0
2017-Apr-24 23:30N 38°03' W 122°15'0 0.0
2017-Apr-24 23:00N 38°03' W 122°15'0 0.0
2017-Apr-24 22:28N 38°03' W 122°15'0 0.0
2017-Apr-24 21:52N 38°03' W 122°15'0 0.0
2017-Apr-24 21:30N 38°03' W 122°15'0 0.0
2017-Apr-24 20:19N 38°03' W 122°15'2 5.4
2017-Apr-24 19:56N 38°03' W 122°12'4 9.9
2017-Apr-24 19:30N 38°03' W 122°17'5 9.8
2017-Apr-24 18:59N 38°01' W 122°23'5 9.5
2017-Apr-24 18:30N 37°57' W 122°26'5 9.8
2017-Apr-24 18:00N 37°52' W 122°24'4 8.3
2017-Apr-24 17:30N 37°48' W 122°22'1 2.2
2017-Apr-24 17:00N 37°49' W 122°23'4 7.6
2017-Apr-24 16:31N 37°53' W 122°25'3 4.7
2017-Apr-24 15:58N 37°55' W 122°25'0 0.8
2017-Apr-24 15:30N 37°55' W 122°25'0 0.2
2017-Apr-24 15:00N 37°55' W 122°25'2 3.3
2017-Apr-24 14:30N 37°54' W 122°25'1 1.2
2017-Apr-24 13:30N 37°54' W 122°24'2 3.6
2017-Apr-24 13:00N 37°55' W 122°22'0 0.0
2017-Apr-24 12:30N 37°55' W 122°22'3 5.2
2017-Apr-24 12:00N 37°55' W 122°25'4 7.1
2017-Apr-24 11:30N 37°52' W 122°27'3 6.8
2017-Apr-24 11:01N 37°49' W 122°29'1 2.9
2017-Apr-24 10:30N 37°49' W 122°31'4 9.0
2017-Apr-24 10:00N 37°50' W 122°26'510.4
2017-Apr-24 09:30N 37°46' W 122°21'0 0.3
2017-Apr-24 09:00N 37°46' W 122°21'2 4.0
2017-Apr-24 08:30N 37°48' W 122°21'1 1.8
2017-Apr-24 08:01N 37°49' W 122°20'0 0.0
2017-Apr-24 07:30N 37°49' W 122°20'0 0.0
2017-Apr-24 07:00N 37°49' W 122°20'0 0.0
2017-Apr-24 06:30N 37°49' W 122°20'0 0.1
2017-Apr-24 06:00N 37°49' W 122°20'0 0.1
2017-Apr-24 05:30N 37°49' W 122°20'0 0.0
2017-Apr-24 05:00N 37°49' W 122°20'0 0.0
2017-Apr-24 04:30N 37°49' W 122°20'3 5.1
2017-Apr-24 04:00N 37°46' W 122°21'2 3.5
2017-Apr-24 03:31N 37°48' W 122°22'611.6
2017-Apr-24 03:00N 37°53' W 122°25'5 9.8
2017-Apr-24 02:30N 37°58' W 122°27'510.9
2017-Apr-24 02:00N 38°02' W 122°22'610.8
2017-Apr-24 01:27N 38°04' W 122°15'6 9.4
2017-Apr-24 00:50N 38°02' W 122°08'3 0.7
2017-Apr-23 20:49N 38°03' W 122°11'3 8.3
2017-Apr-23 20:26N 38°04' W 122°15'4 8.7
2017-Apr-23 20:00N 38°03' W 122°20'5 9.0
2017-Apr-23 19:30N 38°00' W 122°24'4 8.5
2017-Apr-23 19:01N 37°56' W 122°26'5 9.3
2017-Apr-23 18:30N 37°52' W 122°24'4 8.1
2017-Apr-23 18:00N 37°48' W 122°21'1 1.4
2017-Apr-23 17:30N 37°49' W 122°20'0 0.0
2017-Apr-23 17:00N 37°49' W 122°20'0 0.1
2017-Apr-23 16:30N 37°49' W 122°20'0 0.0
2017-Apr-23 16:00N 37°49' W 122°20'0 0.1
2017-Apr-23 15:30N 37°49' W 122°20'0 0.0
2017-Apr-23 15:00N 37°49' W 122°20'0 0.0
2017-Apr-23 14:00N 37°49' W 122°20'0 0.1
2017-Apr-23 13:30N 37°49' W 122°20'0 0.8
2017-Apr-23 13:00N 37°48' W 122°20'0 0.9
2017-Apr-23 12:30N 37°49' W 122°20'1 1.0
2017-Apr-23 12:00N 37°48' W 122°21'0 0.2
2017-Apr-23 11:30N 37°48' W 122°21'0 0.3
2017-Apr-23 11:00N 37°48' W 122°20'0 0.0
2017-Apr-23 10:30N 37°48' W 122°20'1 1.4
2017-Apr-23 10:00N 37°49' W 122°21'510.7
2017-Apr-23 09:30N 37°53' W 122°25'1 2.9
2017-Apr-23 09:00N 37°54' W 122°24'1 2.7
2017-Apr-23 08:30N 37°55' W 122°22'0 0.0
2017-Apr-23 08:00N 37°55' W 122°22'0 0.3
2017-Apr-23 07:30N 37°55' W 122°22'0 0.1
2017-Apr-23 07:00N 37°55' W 122°22'0 0.0
2017-Apr-23 06:30N 37°55' W 122°22'0 0.0
2017-Apr-23 06:00N 37°55' W 122°22'0 0.0
2017-Apr-23 05:30N 37°55' W 122°22'2 4.8
2017-Apr-23 05:00N 37°55' W 122°25'4 7.1
2017-Apr-23 04:30N 37°58' W 122°26'3 6.9
2017-Apr-23 04:00N 38°01' W 122°23'4 7.7
2017-Apr-23 03:29N 38°03' W 122°19'4 8.9
2017-Apr-23 03:00N 38°04' W 122°13'2 1.0
2017-Apr-23 00:51N 38°03' W 122°11'2 7.4
2017-Apr-23 00:30N 38°04' W 122°14'5 9.1
2017-Apr-23 00:00N 38°03' W 122°19'5 9.1
2017-Apr-22 23:29N 38°01' W 122°24'4 8.8
2017-Apr-22 23:00N 37°57' W 122°27'4 8.4
2017-Apr-22 22:30N 37°53' W 122°25'5 9.7
2017-Apr-22 22:00N 37°48' W 122°23'1 2.1
2017-Apr-22 21:30N 37°48' W 122°22'1 2.9
2017-Apr-22 20:59N 37°49' W 122°20'0 0.0
2017-Apr-22 20:30N 37°49' W 122°20'0 0.0
2017-Apr-22 20:00N 37°49' W 122°20'0 0.0
2017-Apr-22 19:30N 37°49' W 122°20'0 0.1
2017-Apr-22 19:00N 37°49' W 122°20'0 0.1
2017-Apr-22 18:30N 37°49' W 122°20'0 0.1
2017-Apr-22 18:00N 37°49' W 122°20'0 0.1
2017-Apr-22 17:30N 37°49' W 122°20'0 0.0
2017-Apr-22 17:00N 37°49' W 122°20'0 0.1
2017-Apr-22 16:30N 37°49' W 122°20'0 0.0
2017-Apr-22 16:00N 37°49' W 122°20'0 0.1
2017-Apr-22 15:30N 37°49' W 122°20'0 0.0
2017-Apr-22 15:00N 37°49' W 122°20'0 0.1
2017-Apr-22 14:30N 37°49' W 122°20'0 0.3
2017-Apr-22 13:30N 37°48' W 122°20'0 0.4
2017-Apr-22 13:01N 37°49' W 122°20'1 1.1
2017-Apr-22 12:30N 37°49' W 122°20'2 4.5
2017-Apr-22 12:01N 37°48' W 122°22'2 3.7
2017-Apr-22 11:30N 37°49' W 122°20'0 0.0
2017-Apr-22 11:00N 37°49' W 122°20'0 0.0
2017-Apr-22 10:30N 37°49' W 122°20'0 0.0
2017-Apr-22 10:00N 37°49' W 122°20'0 0.0
2017-Apr-22 09:30N 37°49' W 122°20'0 0.1
2017-Apr-22 09:00N 37°49' W 122°20'0 0.1
2017-Apr-22 08:30N 37°49' W 122°20'0 0.0
2017-Apr-22 08:00N 37°49' W 122°20'0 0.0
2017-Apr-22 07:30N 37°49' W 122°20'0 0.0
2017-Apr-22 07:00N 37°49' W 122°20'0 0.0
2017-Apr-22 06:30N 37°49' W 122°20'0 0.1
2017-Apr-22 06:00N 37°49' W 122°20'0 0.1
2017-Apr-22 05:30N 37°49' W 122°20'0 0.0
2017-Apr-22 05:00N 37°49' W 122°20'0 0.0
2017-Apr-22 04:30N 37°49' W 122°20'0 0.0
2017-Apr-22 04:00N 37°49' W 122°20'0 0.1
2017-Apr-22 03:30N 37°49' W 122°20'0 0.1
2017-Apr-22 03:00N 37°49' W 122°20'0 0.1
2017-Apr-22 02:30N 37°49' W 122°20'0 0.0
2017-Apr-22 02:00N 37°49' W 122°20'0 0.1
2017-Apr-22 01:30N 37°49' W 122°20'0 0.1
2017-Apr-22 01:00N 37°49' W 122°20'0 0.4
2017-Apr-22 00:30N 37°49' W 122°20'0 0.5
2017-Apr-22 00:00N 37°49' W 122°20'0 0.1
2017-Apr-21 23:30N 37°49' W 122°20'0 0.5
2017-Apr-21 23:00N 37°49' W 122°20'3 5.7
2017-Apr-21 22:30N 37°48' W 122°24'0 0.6
2017-Apr-21 22:00N 37°48' W 122°24'0 0.0
2017-Apr-21 21:30N 37°48' W 122°24'0 0.0
2017-Apr-21 21:00N 37°48' W 122°24'0 0.0
2017-Apr-21 20:30N 37°48' W 122°24'0 0.0
2017-Apr-21 20:00N 37°48' W 122°24'0 0.0
2017-Apr-21 19:30N 37°48' W 122°24'0 0.0
2017-Apr-21 19:00N 37°48' W 122°24'0 0.0
2017-Apr-21 18:30N 37°48' W 122°24'0 0.0
2017-Apr-21 18:00N 37°48' W 122°24'0 0.0
2017-Apr-21 17:30N 37°48' W 122°24'0 0.0
2017-Apr-21 17:00N 37°48' W 122°24'0 0.0
2017-Apr-21 16:30N 37°48' W 122°24'0 0.0
2017-Apr-21 16:00N 37°48' W 122°24'0 0.0
2017-Apr-21 15:30N 37°48' W 122°24'2 4.0
2017-Apr-21 15:00N 37°47' W 122°22'5 9.2
2017-Apr-21 14:30N 37°49' W 122°27'3 2.8
2017-Apr-21 13:30N 37°48' W 122°30'2 5.0
2017-Apr-21 13:00N 37°50' W 122°28'3 5.9
2017-Apr-21 12:30N 37°52' W 122°26'3 5.5
2017-Apr-21 12:01N 37°55' W 122°24'2 3.6
2017-Apr-21 11:30N 37°55' W 122°22'0 0.3
2017-Apr-21 11:00N 37°55' W 122°22'1 2.0
2017-Apr-21 10:30N 37°54' W 122°23'2 3.6
2017-Apr-21 10:00N 37°55' W 122°25'4 7.6
2017-Apr-21 09:30N 37°51' W 122°25'5 9.0
2017-Apr-21 09:00N 37°49' W 122°30'1 2.2
2017-Apr-21 08:30N 37°49' W 122°31'0 0.1
2017-Apr-21 08:00N 37°49' W 122°31'2 4.4
2017-Apr-21 07:30N 37°49' W 122°28'2 3.2
2017-Apr-21 07:00N 37°50' W 122°27'3 5.2
2017-Apr-21 06:30N 37°52' W 122°25'4 8.4
2017-Apr-21 06:00N 37°57' W 122°26'4 8.1
2017-Apr-21 05:30N 38°00' W 122°24'4 7.5
2017-Apr-21 05:00N 38°03' W 122°20'4 7.5
2017-Apr-21 04:29N 38°04' W 122°15'3 7.2
2017-Apr-21 04:00N 38°03' W 122°11'3 5.1
2017-Apr-21 03:28N 38°02' W 122°08'0 0.0
2017-Apr-21 02:54N 38°02' W 122°08'2 1.5
2017-Apr-21 01:47N 38°03' W 122°06'4 4.5
2017-Apr-21 00:57N 38°03' W 122°11'3 6.7
2017-Apr-21 00:27N 38°04' W 122°15'1 1.3
2017-Apr-21 00:00N 38°03' W 122°16'2 2.5
2017-Apr-20 23:20N 38°03' W 122°18'2 6.2
2017-Apr-20 23:00N 38°03' W 122°20'3 5.5
2017-Apr-20 22:30N 38°01' W 122°23'4 7.3
2017-Apr-20 22:00N 37°58' W 122°26'4 7.2
2017-Apr-20 21:30N 37°54' W 122°25'3 6.7
2017-Apr-20 21:00N 37°51' W 122°24'3 5.7
2017-Apr-20 20:30N 37°48' W 122°24'0 0.6
2017-Apr-20 20:00N 37°48' W 122°24'0 0.0
2017-Apr-20 19:30N 37°48' W 122°24'0 0.0
2017-Apr-20 19:00N 37°48' W 122°24'0 0.0
2017-Apr-20 18:30N 37°48' W 122°24'0 0.1
2017-Apr-20 18:01N 37°48' W 122°24'3 6.8
2017-Apr-20 17:31N 37°49' W 122°20'0 0.3
2017-Apr-20 17:00N 37°49' W 122°20'0 0.6
2017-Apr-20 16:30N 37°49' W 122°20'0 0.0
2017-Apr-20 16:00N 37°49' W 122°20'0 0.0
2017-Apr-20 15:30N 37°49' W 122°20'0 0.0
2017-Apr-20 15:00N 37°49' W 122°20'2 1.7
2017-Apr-20 14:00N 37°48' W 122°22'4 8.3
2017-Apr-20 13:30N 37°49' W 122°27'2 5.0
2017-Apr-20 13:00N 37°48' W 122°30'3 6.4
2017-Apr-20 12:30N 37°50' W 122°27'4 8.3
2017-Apr-20 12:00N 37°54' W 122°25'1 2.2
2017-Apr-20 11:30N 37°55' W 122°25'0 0.1
2017-Apr-20 11:00N 37°55' W 122°25'0 0.1
2017-Apr-20 09:29N 37°55' W 122°24'3 6.2
2017-Apr-20 09:00N 37°53' W 122°26'3 5.9
2017-Apr-20 08:30N 37°50' W 122°28'3 5.4
2017-Apr-20 08:00N 37°49' W 122°31'2 4.4
2017-Apr-20 07:31N 37°49' W 122°28'4 8.6
2017-Apr-20 07:00N 37°53' W 122°25'2 5.0
2017-Apr-20 06:31N 37°55' W 122°25'0 0.3
2017-Apr-20 06:00N 37°55' W 122°25'0 0.4
2017-Apr-20 05:29N 37°55' W 122°25'0 0.0
2017-Apr-20 05:01N 37°55' W 122°25'0 0.0
2017-Apr-20 04:30N 37°55' W 122°25'0 0.0
2017-Apr-20 04:00N 37°55' W 122°25'0 0.0
2017-Apr-20 03:29N 37°55' W 122°25'0 0.0
2017-Apr-20 02:59N 37°55' W 122°25'0 0.0
2017-Apr-20 02:31N 37°55' W 122°25'0 0.0
2017-Apr-20 02:01N 37°55' W 122°25'0 0.0
2017-Apr-20 01:30N 37°55' W 122°25'0 0.0
2017-Apr-20 00:59N 37°55' W 122°25'0 0.0
2017-Apr-20 00:31N 37°55' W 122°25'0 0.0
2017-Apr-20 00:00N 37°55' W 122°25'0 0.0
2017-Apr-19 23:30N 37°55' W 122°25'3 6.5
2017-Apr-19 23:00N 37°52' W 122°24'4 7.5
2017-Apr-19 22:31N 37°49' W 122°21'1 2.7
2017-Apr-19 22:00N 37°49' W 122°20'0 0.1
2017-Apr-19 21:30N 37°49' W 122°20'3 6.5
2017-Apr-19 21:01N 37°48' W 122°24'0 0.0
2017-Apr-19 20:31N 37°48' W 122°24'0 0.0
2017-Apr-19 20:01N 37°48' W 122°24'0 0.0
2017-Apr-19 19:31N 37°48' W 122°24'0 0.0
2017-Apr-19 19:01N 37°48' W 122°24'4 8.4
2017-Apr-19 18:31N 37°52' W 122°25'710.9
2017-Apr-19 17:54N 37°59' W 122°25'410.7
2017-Apr-19 17:30N 38°02' W 122°22'510.8
2017-Apr-19 17:00N 38°04' W 122°15'4 1.1
2017-Apr-19 13:53N 38°03' W 122°11'3 7.4
2017-Apr-19 13:30N 38°04' W 122°14'810.3
2017-Apr-19 12:42N 38°01' W 122°24'211.7
2017-Apr-19 12:30N 37°59' W 122°26'5 9.1
2017-Apr-19 12:00N 37°55' W 122°24'2 4.1
2017-Apr-19 11:31N 37°55' W 122°22'0 0.1
2017-Apr-19 11:01N 37°55' W 122°22'0 0.3
2017-Apr-19 10:30N 37°55' W 122°22'0 0.0
2017-Apr-19 10:01N 37°55' W 122°22'0 0.0
2017-Apr-19 09:31N 37°55' W 122°22'0 0.0
2017-Apr-19 09:00N 37°55' W 122°22'0 0.1
2017-Apr-19 08:31N 37°55' W 122°22'4 7.1
2017-Apr-19 08:01N 37°56' W 122°26'5 9.4
2017-Apr-19 07:30N 38°01' W 122°24'5 9.6
2017-Apr-19 07:01N 38°03' W 122°18'6 9.7
2017-Apr-19 06:24N 38°03' W 122°11'3 5.4
2017-Apr-19 05:54N 38°02' W 122°08'0 0.0
2017-Apr-19 05:19N 38°02' W 122°08'2 2.5
2017-Apr-19 04:24N 38°03' W 122°11'3 7.3
2017-Apr-19 04:00N 38°04' W 122°14'510.5
2017-Apr-19 03:29N 38°03' W 122°21'510.6
2017-Apr-19 03:00N 37°59' W 122°26'510.9
2017-Apr-19 02:31N 37°54' W 122°26'5 9.2
2017-Apr-19 02:01N 37°49' W 122°26'4 7.3
2017-Apr-19 01:31N 37°48' W 122°31'1 2.0
2017-Apr-19 01:00N 37°48' W 122°29'511.0
2017-Apr-19 00:31N 37°53' W 122°26'2 4.5
2017-Apr-19 00:00N 37°55' W 122°25'0 0.0
2017-Apr-18 23:29N 37°55' W 122°25'0 1.0
2017-Apr-18 23:01N 37°55' W 122°25'3 5.4
2017-Apr-18 22:31N 37°53' W 122°25'1 2.0
2017-Apr-18 22:01N 37°52' W 122°24'3 6.9
2017-Apr-18 21:30N 37°49' W 122°21'1 2.3
2017-Apr-18 21:00N 37°49' W 122°20'0 0.1
2017-Apr-18 20:30N 37°49' W 122°20'0 0.1
2017-Apr-18 20:00N 37°49' W 122°20'0 0.0
2017-Apr-18 19:30N 37°49' W 122°20'0 0.1
2017-Apr-18 19:01N 37°49' W 122°20'0 0.1
2017-Apr-18 18:31N 37°49' W 122°20'0 0.1
2017-Apr-18 18:00N 37°49' W 122°20'0 0.1
2017-Apr-18 17:30N 37°49' W 122°20'0 0.0
2017-Apr-18 17:01N 37°49' W 122°20'0 0.0
2017-Apr-18 16:30N 37°49' W 122°20'0 0.1
2017-Apr-18 16:01N 37°49' W 122°20'1 1.3
2017-Apr-18 15:31N 37°48' W 122°20'1 2.0
2017-Apr-18 15:01N 37°48' W 122°19'0 0.5
2017-Apr-18 14:00N 37°48' W 122°18'2 3.5
2017-Apr-18 13:31N 37°48' W 122°20'2 3.2
2017-Apr-18 13:01N 37°48' W 122°22'2 3.6
2017-Apr-18 12:31N 37°49' W 122°20'0 0.0
2017-Apr-18 12:01N 37°49' W 122°20'0 0.0
2017-Apr-18 11:31N 37°49' W 122°20'0 0.0
2017-Apr-18 11:00N 37°49' W 122°20'2 4.6
2017-Apr-18 10:31N 37°49' W 122°23'5 9.5
2017-Apr-18 10:01N 37°53' W 122°25'2 4.3
2017-Apr-18 09:30N 37°55' W 122°25'0 0.1
2017-Apr-18 09:01N 37°55' W 122°25'1 2.6
2017-Apr-18 08:30N 37°54' W 122°25'1 1.7
2017-Apr-18 08:00N 37°55' W 122°25'3 5.6
2017-Apr-18 07:30N 37°55' W 122°22'0 0.0
2017-Apr-18 07:01N 37°55' W 122°22'0 0.1
2017-Apr-18 06:30N 37°55' W 122°22'0 0.0
2017-Apr-18 06:00N 37°55' W 122°22'0 0.0
2017-Apr-18 05:30N 37°55' W 122°22'0 0.3
2017-Apr-18 05:01N 37°55' W 122°22'0 0.0
2017-Apr-18 04:30N 37°55' W 122°22'1 1.1
2017-Apr-18 04:00N 37°54' W 122°22'3 5.1
2017-Apr-18 03:31N 37°55' W 122°25'3 6.1
2017-Apr-18 03:00N 37°52' W 122°25'4 7.1
2017-Apr-18 02:31N 37°49' W 122°27'3 5.5
2017-Apr-18 02:01N 37°48' W 122°30'4 7.0
2017-Apr-18 01:30N 37°49' W 122°26'713.1
2017-Apr-18 01:00N 37°48' W 122°18'0 0.0
2017-Apr-18 00:28N 37°48' W 122°18'1 1.2
2017-Apr-18 00:00N 37°48' W 122°19'0 0.0
2017-Apr-17 23:31N 37°48' W 122°19'0 0.4
2017-Apr-17 23:01N 37°48' W 122°19'4 7.7
2017-Apr-17 22:30N 37°48' W 122°24'0 0.0
2017-Apr-17 22:01N 37°48' W 122°24'0 0.0
2017-Apr-17 21:30N 37°48' W 122°24'0 0.0
2017-Apr-17 21:00N 37°48' W 122°24'0 0.0
2017-Apr-17 20:30N 37°48' W 122°24'0 0.1
2017-Apr-17 20:00N 37°48' W 122°24'3 6.0
2017-Apr-17 19:30N 37°49' W 122°20'0 0.1
2017-Apr-17 19:00N 37°49' W 122°20'0 0.1
2017-Apr-17 18:30N 37°49' W 122°20'0 0.1
2017-Apr-17 18:00N 37°49' W 122°20'0 0.0
2017-Apr-17 17:30N 37°49' W 122°20'0 0.1
2017-Apr-17 17:00N 37°49' W 122°20'0 0.1
2017-Apr-17 16:30N 37°49' W 122°20'0 0.0
2017-Apr-17 16:00N 37°49' W 122°20'0 0.1
2017-Apr-17 15:30N 37°49' W 122°20'1 2.5
2017-Apr-17 15:00N 37°48' W 122°22'7 7.3
2017-Apr-17 14:01N 37°49' W 122°31'1 1.8
2017-Apr-17 13:31N 37°48' W 122°31'510.9
2017-Apr-17 13:01N 37°51' W 122°25'510.7
2017-Apr-17 12:30N 37°56' W 122°27'611.0
2017-Apr-17 12:00N 38°01' W 122°24'510.1
2017-Apr-17 11:30N 38°03' W 122°18'7 0.9
2017-Apr-17 03:29N 38°02' W 122°09'1 0.9
2017-Apr-17 02:32N 38°02' W 122°08'0 3.5
2017-Apr-17 02:29N 38°02' W 122°08'0 0.2
2017-Apr-16 23:24N 38°02' W 122°09'0 0.0
2017-Apr-16 12:25N 38°02' W 122°09'1 1.1
2017-Apr-16 11:34N 38°02' W 122°08'0 4.0
2017-Apr-16 11:28N 38°02' W 122°08'  

Dump ship's entire track history